Time;durP1;ratioP1;P1;durP2;ratioP2;P2;SDS_P1;SDS_P2;PMS_P1;PMS_P2;Temp;Humidity;BMP_temperature;BMP_pressure;BME280_temperature;BME280_humidity;BME280_pressure;Samples;Min_cycle;Max_cycle;Signal;HPM_P1;HPM_P2
2021/07/05 00:00:19;;;;;;;13.48;2.30;;;;;;;19.61;65.50;100517.72;4955267;28;20047;-78
2021/07/05 00:02:47;;;;;;;7.13;1.67;;;;;;;19.59;65.70;100510.88;4955142;28;20058;-75
2021/07/05 00:05:15;;;;;;;11.38;3.08;;;;;;;19.63;64.42;100518.13;4955568;28;20053;-80
2021/07/05 00:07:46;;;;;;;11.52;4.85;;;;;;;19.48;64.92;100519.13;4923503;29;20526;-80
2021/07/05 00:10:19;;;;;;;10.90;4.03;;;;;;;19.57;66.94;100521.63;4956449;28;20047;-79
2021/07/05 00:12:48;;;;;;;8.85;3.20;;;;;;;19.55;64.87;100512.81;4939271;29;20051;-80
2021/07/05 00:15:22;;;;;;;9.00;2.25;;;;;;;19.52;64.74;100492.03;4957331;29;20411;-82
2021/07/05 00:17:54;;;;;;;20.10;10.63;;;;;;;19.44;64.50;100495.91;4940218;29;20059;-80
2021/07/05 00:20:22;;;;;;;17.65;6.55;;;;;;;19.64;63.49;100488.19;4955932;29;20484;-78
2021/07/05 00:22:50;;;;;;;11.00;4.68;;;;;;;19.51;64.28;100492.44;4954137;29;20500;-76
2021/07/05 00:25:18;;;;;;;11.23;3.65;;;;;;;19.47;63.96;100506.34;4955482;29;20051;-79
2021/07/05 00:27:45;;;;;;;8.65;2.35;;;;;;;19.46;63.89;100515.88;4953320;29;20535;-75
2021/07/05 00:30:15;;;;;;;8.02;2.38;;;;;;;19.41;64.08;100507.84;4953301;29;20047;-76
2021/07/05 00:32:44;;;;;;;5.50;2.10;;;;;;;19.29;64.18;100515.59;4953266;29;20047;-80
2021/07/05 00:35:14;;;;;;;11.80;2.40;;;;;;;19.24;64.32;100518.72;4955344;28;20051;-75
2021/07/05 00:37:42;;;;;;;11.18;2.22;;;;;;;19.16;65.12;100517.81;4955149;29;20043;-80
2021/07/05 00:40:10;;;;;;;6.07;1.88;;;;;;;19.25;65.02;100514.75;4952612;29;20054;-77
2021/07/05 00:42:38;;;;;;;9.60;2.10;;;;;;;19.34;64.26;100513.31;4953238;29;20059;-76
2021/07/05 00:45:08;;;;;;;6.28;1.90;;;;;;;19.38;64.37;100503.03;4953246;28;20054;-77
2021/07/05 00:47:47;;;;;;;5.50;2.15;;;;;;;19.22;64.55;100509.91;4955358;28;20070;-76
2021/07/05 00:50:16;;;;;;;10.90;2.25;;;;;;;19.21;64.93;100505.53;4953992;29;20403;-76
2021/07/05 00:52:52;;;;;;;6.45;1.83;;;;;;;19.23;64.31;100501.16;4954054;29;20051;-75
2021/07/05 00:55:20;;;;;;;8.43;2.15;;;;;;;19.37;64.73;100515.34;4955059;28;20051;-79
2021/07/05 00:57:47;;;;;;;6.68;2.20;;;;;;;19.34;64.36;100512.50;4954291;29;20054;-78
2021/07/05 01:00:17;;;;;;;4.60;2.10;;;;;;;19.35;64.05;100517.75;4955826;29;20066;-78
2021/07/05 01:02:45;;;;;;;9.65;2.20;;;;;;;19.29;64.52;100505.25;4956130;29;20047;-80
2021/07/05 01:05:14;;;;;;;8.33;2.17;;;;;;;19.11;65.05;100490.19;4955684;29;20062;-76
2021/07/05 01:07:42;;;;;;;7.25;1.95;;;;;;;19.39;64.89;100487.03;4954540;28;20139;-80
2021/07/05 01:10:11;;;;;;;7.53;2.03;;;;;;;19.56;63.60;100478.91;4953442;29;20059;-78
2021/07/05 01:12:40;;;;;;;9.13;2.28;;;;;;;19.45;63.50;100466.81;4954726;29;20498;-77
2021/07/05 01:15:11;;;;;;;7.93;2.47;;;;;;;19.13;65.64;100487.84;4954652;28;20047;-75
2021/07/05 01:17:42;;;;;;;9.43;2.53;;;;;;;19.15;65.91;100479.91;4953313;29;20055;-77
2021/07/05 01:20:12;;;;;;;7.65;2.00;;;;;;;19.16;65.30;100461.94;4954204;29;20050;-77
2021/07/05 01:22:39;;;;;;;5.93;1.98;;;;;;;19.14;64.92;100457.94;4954770;28;20058;-77
2021/07/05 01:25:11;;;;;;;7.60;2.13;;;;;;;19.17;65.12;100457.19;4954320;29;20074;-78
2021/07/05 01:27:40;;;;;;;10.27;2.10;;;;;;;19.08;65.52;100454.66;4937331;29;20043;-78
2021/07/05 01:30:08;;;;;;;8.05;2.08;;;;;;;18.95;65.80;100464.47;4954286;29;20510;-75
2021/07/05 01:32:36;;;;;;;10.68;2.10;;;;;;;18.89;66.24;100458.38;4953943;28;20047;-80
2021/07/05 01:35:07;;;;;;;6.07;1.77;;;;;;;19.13;65.61;100459.91;4952238;29;20138;-80
2021/07/05 01:37:35;;;;;;;11.73;2.20;;;;;;;19.01;66.00;100455.38;4954292;28;20379;-77
2021/07/05 01:40:05;;;;;;;8.55;2.40;;;;;;;19.08;65.60;100449.09;4953599;29;20051;-79
2021/07/05 01:42:33;;;;;;;8.20;1.98;;;;;;;18.85;65.80;100467.88;4954192;29;20059;-77
2021/07/05 01:45:01;;;;;;;6.20;2.25;;;;;;;19.01;66.25;100477.72;4955292;29;20047;-78
2021/07/05 01:47:28;;;;;;;9.18;2.45;;;;;;;19.02;66.29;100472.94;4955409;29;20054;-79
2021/07/05 01:49:56;;;;;;;9.38;2.40;;;;;;;18.84;66.71;100474.63;4953452;28;20054;-74
2021/07/05 01:52:23;;;;;;;7.20;2.13;;;;;;;18.91;66.85;100467.19;4954480;28;20055;-77
2021/07/05 01:54:50;;;;;;;6.93;2.05;;;;;;;18.78;67.67;100468.56;4952738;29;20047;-78
2021/07/05 02:01:46;;;;;;;8.65;1.90;;;;;;;18.66;68.55;100451.22;4953398;28;20491;-74
2021/07/05 02:04:13;;;;;;;9.63;2.50;;;;;;;18.70;68.09;100455.69;4953665;29;20091;-78
2021/07/05 02:06:41;;;;;;;7.97;1.67;;;;;;;18.78;67.57;100460.19;4952566;29;20043;-74
2021/07/05 02:09:08;;;;;;;7.45;2.05;;;;;;;18.76;68.14;100465.34;4953047;28;20506;-76
2021/07/05 02:16:04;;;;;;;6.70;2.22;;;;;;;18.74;68.92;100473.28;4953259;28;20066;-74
2021/07/05 02:18:32;;;;;;;9.40;2.20;;;;;;;18.88;67.60;100467.91;4952100;29;20421;-76
2021/07/05 02:21:04;;;;;;;6.18;1.80;;;;;;;18.70;68.13;100468.81;4953234;28;20050;-75
2021/07/05 02:23:32;;;;;;;9.48;2.20;;;;;;;18.72;68.09;100467.28;4953623;28;20050;-75
2021/07/05 02:25:59;;;;;;;9.13;2.05;;;;;;;18.75;68.13;100454.56;4953223;29;20163;-74
2021/07/05 02:28:30;;;;;;;7.53;2.00;;;;;;;18.65;69.18;100460.78;4952222;29;20051;-73
2021/07/05 02:30:58;;;;;;;8.65;2.33;;;;;;;18.83;68.85;100456.25;4952862;28;20051;-77
2021/07/05 02:33:29;;;;;;;11.75;2.42;;;;;;;18.56;68.94;100458.25;4952397;29;20050;-79
2021/07/05 02:35:56;;;;;;;10.25;2.40;;;;;;;18.36;69.88;100453.09;4952259;29;20055;-76
2021/07/05 02:38:25;;;;;;;7.43;1.90;;;;;;;18.33;70.72;100449.03;4955260;28;20058;-75
2021/07/05 02:40:54;;;;;;;8.30;2.60;;;;;;;18.42;70.50;100435.69;4952804;29;20082;-74
2021/07/05 02:43:22;;;;;;;7.43;2.13;;;;;;;18.57;69.38;100431.13;4951647;29;20058;-76
2021/07/05 02:45:53;;;;;;;9.25;2.15;;;;;;;18.56;69.81;100419.19;4953503;29;20154;-74
2021/07/05 02:48:23;;;;;;;7.35;2.28;;;;;;;18.52;70.34;100421.09;4953371;29;20367;-74
2021/07/05 02:50:54;;;;;;;9.63;2.70;;;;;;;18.48;70.47;100425.03;4952149;29;20066;-75
2021/07/05 02:53:21;;;;;;;9.35;2.33;;;;;;;18.63;70.45;100413.72;4952803;28;20051;-74
2021/07/05 02:55:49;;;;;;;7.68;2.08;;;;;;;18.55;70.64;100414.00;4953157;28;20406;-76
2021/07/05 02:58:17;;;;;;;9.50;2.40;;;;;;;18.56;70.37;100405.25;4952530;28;20055;-74
2021/07/05 03:00:47;;;;;;;10.68;2.67;;;;;;;18.36;71.43;100412.03;4951449;29;20051;-74
2021/07/05 03:03:15;;;;;;;8.45;2.38;;;;;;;18.33;71.50;100409.19;4951353;29;20383;-75
2021/07/05 03:05:43;;;;;;;6.70;2.47;;;;;;;18.37;71.72;100399.72;4953196;29;20051;-77
2021/07/05 03:08:11;;;;;;;8.23;2.60;;;;;;;17.97;73.31;100396.63;4953837;28;20085;-75
2021/07/05 03:10:40;;;;;;;10.48;2.17;;;;;;;18.28;72.72;100395.56;4955382;29;20043;-75
2021/07/05 03:13:10;;;;;;;9.27;2.42;;;;;;;18.26;73.41;100386.75;4956179;28;20511;-73
2021/07/05 03:15:38;;;;;;;7.25;2.33;;;;;;;18.17;74.17;100387.00;4954701;29;20072;-75
2021/07/05 03:18:06;;;;;;;9.30;2.60;;;;;;;18.06;74.63;100399.16;4955539;28;20065;-76
2021/07/05 03:20:37;;;;;;;11.60;2.22;;;;;;;17.99;74.78;100397.06;4954721;29;20371;-79
2021/07/05 03:23:06;;;;;;;9.20;2.80;;;;;;;17.94;74.77;100398.16;4955181;29;20051;-76
2021/07/05 03:25:36;;;;;;;8.93;2.45;;;;;;;18.10;75.07;100397.25;4954725;29;20058;-78
2021/07/05 03:32:27;;;;;;;10.82;2.25;;;;;;;17.93;76.00;100387.38;4956322;28;20051;-78
2021/07/05 03:34:54;;;;;;;7.10;2.70;;;;;;;17.93;76.15;100390.97;4954967;29;20368;-78
2021/07/05 03:37:22;;;;;;;8.93;2.83;;;;;;;17.95;76.47;100388.63;4956171;29;20047;-73
2021/07/05 03:39:49;;;;;;;5.82;2.83;;;;;;;17.86;76.96;100382.50;4955381;28;20055;-76
2021/07/05 03:42:16;;;;;;;9.65;3.05;;;;;;;17.57;78.22;100387.91;4955594;28;20047;-75
2021/07/05 03:44:44;;;;;;;9.85;2.80;;;;;;;17.66;78.38;100380.91;4955633;28;20055;-75
2021/07/05 03:47:11;;;;;;;6.78;2.90;;;;;;;17.38;79.83;100371.16;4955867;29;20376;-73
2021/07/05 03:49:39;;;;;;;12.98;3.05;;;;;;;17.61;79.78;100380.38;4954068;29;20059;-78
2021/07/05 03:52:07;;;;;;;11.75;3.10;;;;;;;17.71;79.30;100371.47;4955285;28;20407;-77
2021/07/05 03:54:34;;;;;;;8.02;3.17;;;;;;;17.75;78.97;100370.34;4953970;29;20066;-74
2021/07/05 03:57:02;;;;;;;9.45;2.95;;;;;;;17.69;79.44;100366.25;4938642;29;20047;-75
2021/07/05 03:59:30;;;;;;;6.25;2.60;;;;;;;17.57;79.65;100363.63;4954482;29;20048;-76
2021/07/05 04:01:58;;;;;;;9.77;2.67;;;;;;;17.65;79.86;100365.38;4955483;28;20062;-75
2021/07/05 04:04:25;;;;;;;10.00;3.50;;;;;;;17.53;80.13;100339.66;4954331;29;20051;-75
2021/07/05 04:06:53;;;;;;;8.77;2.95;;;;;;;17.62;80.49;100340.25;4955403;29;20058;-75
2021/07/05 04:09:21;;;;;;;6.35;3.03;;;;;;;17.58;81.09;100331.81;4955328;28;20406;-76
2021/07/05 04:11:49;;;;;;;9.88;3.20;;;;;;;17.50;82.00;100323.69;4955299;28;20058;-75
2021/07/05 04:14:16;;;;;;;16.40;3.40;;;;;;;17.41;82.06;100318.34;4955833;28;20063;-76
2021/07/05 04:16:44;;;;;;;7.30;2.83;;;;;;;17.44;82.36;100316.78;4938763;29;20399;-77
2021/07/05 04:19:11;;;;;;;5.80;2.40;;;;;;;17.35;82.11;100322.59;4954785;28;20051;-78
2021/07/05 04:21:39;;;;;;;8.20;2.72;;;;;;;17.44;81.67;100316.78;4955199;28;20055;-77
2021/07/05 04:24:06;;;;;;;6.18;2.40;;;;;;;17.28;81.93;100314.09;4955546;29;20391;-73
2021/07/05 04:26:34;;;;;;;6.55;2.60;;;;;;;17.31;82.03;100320.91;4953957;29;20138;-74
2021/07/05 04:29:02;;;;;;;9.07;3.22;;;;;;;17.29;82.53;100324.06;4953078;29;20066;-74
2021/07/05 04:31:29;;;;;;;5.32;2.08;;;;;;;17.29;82.21;100324.06;4954801;28;20398;-74
2021/07/05 04:33:57;;;;;;;7.68;2.63;;;;;;;17.18;83.26;100317.47;4953029;29;20055;-78
2021/07/05 04:36:24;;;;;;;8.40;2.83;;;;;;;17.08;83.70;100320.03;4955347;28;20047;-78
2021/07/05 04:38:51;;;;;;;4.35;2.53;;;;;;;17.11;84.40;100325.69;4952757;29;20062;-77
2021/07/05 04:41:20;;;;;;;8.32;2.88;;;;;;;17.01;83.94;100329.06;4954331;28;20163;-77
2021/07/05 04:48:12;;;;;;;8.32;3.38;;;;;;;16.97;84.48;100322.59;4955019;29;20043;-75
2021/07/05 04:50:40;;;;;;;9.18;3.40;;;;;;;17.15;83.75;100307.09;4937095;29;20070;-74
2021/07/05 04:53:07;;;;;;;10.52;3.67;;;;;;;16.93;84.29;100305.03;4953395;29;20047;-74
2021/07/05 04:55:40;;;;;;;11.38;3.58;;;;;;;16.98;85.00;100282.47;4954640;28;20608;-73
2021/07/05 04:58:08;;;;;;;10.98;3.80;;;;;;;17.09;84.50;100269.56;4953793;29;20058;-74
2021/07/05 05:00:36;;;;;;;8.13;2.85;;;;;;;16.74;85.75;100263.28;4953057;29;20047;-74
2021/07/05 05:03:04;;;;;;;7.13;2.60;;;;;;;16.78;85.12;100248.31;4953937;28;20051;-75
2021/07/05 05:05:33;;;;;;;6.10;2.20;;;;;;;16.83;84.40;100247.19;4937177;29;20403;-74
2021/07/05 05:08:05;;;;;;;6.35;2.58;;;;;;;16.83;85.12;100241.63;4952918;29;20047;-74
2021/07/05 05:10:33;;;;;;;4.78;2.05;;;;;;;16.95;85.03;100241.47;4954480;28;20058;-73
2021/07/05 05:13:01;;;;;;;6.70;2.20;;;;;;;16.85;84.84;100248.44;4952349;29;20051;-78
2021/07/05 05:15:29;;;;;;;6.18;2.47;;;;;;;16.96;84.70;100239.50;4954329;28;20058;-78
2021/07/05 05:17:57;;;;;;;7.15;2.33;;;;;;;17.01;84.05;100237.22;4952788;29;20058;-77
2021/07/05 05:20:25;;;;;;;3.63;1.80;;;;;;;17.39;81.78;100233.56;4954233;28;20177;-77
2021/07/05 05:22:52;;;;;;;4.40;2.13;;;;;;;17.26;81.62;100219.00;4952165;29;20448;-77
2021/07/05 05:25:20;;;;;;;3.95;1.83;;;;;;;17.17;81.72;100220.44;4954178;29;20070;-73
2021/07/05 05:27:48;;;;;;;5.53;1.70;;;;;;;16.94;82.81;100230.72;4954165;29;20051;-75
2021/07/05 05:30:18;;;;;;;6.30;2.58;;;;;;;17.15;81.96;100229.16;4953775;28;20062;-77
2021/07/05 05:32:46;;;;;;;6.00;1.75;;;;;;;17.14;81.91;100223.97;4954038;29;20151;-77
2021/07/05 05:35:17;;;;;;;5.97;1.73;;;;;;;17.57;80.47;100226.34;4953973;28;20055;-79
2021/07/05 05:37:46;;;;;;;4.30;2.00;;;;;;;17.28;80.74;100208.31;4954004;29;20139;-79
2021/07/05 05:40:13;;;;;;;6.93;2.28;;;;;;;17.51;80.75;100213.91;4954113;29;20043;-77
2021/07/05 05:42:42;;;;;;;4.60;1.90;;;;;;;17.60;80.39;100212.50;4953213;28;20051;-75
2021/07/05 05:45:12;;;;;;;3.80;2.35;;;;;;;17.51;81.81;100233.41;4953977;28;20047;-75
2021/07/05 05:47:40;;;;;;;6.07;2.47;;;;;;;17.41;82.22;100242.34;4952671;29;20058;-75
2021/07/05 05:50:08;;;;;;;5.97;2.08;;;;;;;17.31;82.69;100246.53;4952110;29;20104;-76
2021/07/05 05:52:36;;;;;;;5.15;2.15;;;;;;;17.42;82.00;100244.75;4952955;28;20047;-74
2021/07/05 05:55:05;;;;;;;5.28;2.00;;;;;;;17.15;82.11;100254.19;4951932;29;20059;-76
2021/07/05 05:57:33;;;;;;;3.47;2.00;;;;;;;17.20;82.41;100267.81;4953511;28;20051;-75
2021/07/05 06:00:01;;;;;;;6.07;1.92;;;;;;;17.38;82.09;100260.59;4953571;28;20062;-74
2021/07/05 06:02:29;;;;;;;4.25;1.80;;;;;;;17.44;80.97;100261.91;4953436;29;20051;-74
2021/07/05 06:04:56;;;;;;;5.38;1.90;;;;;;;17.58;79.72;100253.84;4936482;29;20051;-75
2021/07/05 06:07:24;;;;;;;5.03;1.90;;;;;;;17.46;80.94;100262.38;4953521;28;20058;-75
2021/07/05 06:09:51;;;;;;;5.30;1.92;;;;;;;17.49;80.73;100260.81;4951465;29;20094;-74
2021/07/05 06:12:20;;;;;;;5.20;2.00;;;;;;;17.56;80.44;100258.16;4951537;29;20054;-74
2021/07/05 06:14:50;;;;;;;3.92;1.52;;;;;;;17.53;81.06;100250.53;4951632;29;20043;-74
2021/07/05 06:17:18;;;;;;;;;;;;;;;17.39;81.59;100255.81;4954016;29;20054;-75
2021/07/05 06:19:45;;;;;;;6.32;1.77;;;;;;;17.55;81.25;100254.59;4953421;29;20037;-76
2021/07/05 06:22:14;;;;;;;5.28;2.60;;;;;;;17.72;79.98;100253.28;4953318;29;20062;-73
2021/07/05 06:24:46;;;;;;;5.30;1.83;;;;;;;17.73;79.73;100241.75;4953564;29;20050;-74
2021/07/05 06:27:14;;;;;;;6.72;2.25;;;;;;;17.82;78.91;100241.50;4952078;29;20054;-74
2021/07/05 06:34:09;;;;;;;4.90;2.13;;;;;;;17.77;78.76;100245.41;4953271;29;20050;-75
2021/07/05 06:36:38;;;;;;;2.63;1.85;;;;;;;17.37;80.55;100242.28;4952479;28;20058;-74
2021/07/05 06:39:06;;;;;;;4.88;2.03;;;;;;;17.69;80.69;100234.53;4953355;28;20364;-74
2021/07/05 06:41:33;;;;;;;4.07;2.10;;;;;;;17.95;79.76;100224.22;4951508;28;20356;-74
2021/07/05 06:48:41;;;;;;;5.10;2.10;;;;;;;18.96;77.86;100217.63;4957110;28;20059;-68
2021/07/05 06:51:09;;;;;;;7.55;3.30;;;;;;;19.11;77.44;100221.38;4955415;29;20475;-71
2021/07/05 06:53:36;;;;;;;5.85;2.20;;;;;;;18.95;78.01;100233.56;4956803;28;20059;-71
2021/07/05 06:56:07;;;;;;;3.28;1.67;;;;;;;19.00;77.72;100236.00;4955367;29;20070;-71
2021/07/05 06:58:35;;;;;;;5.85;1.98;;;;;;;19.08;76.47;100245.28;4954893;29;20043;-70
2021/07/05 07:01:03;;;;;;;4.28;2.05;;;;;;;19.18;75.54;100244.59;4954644;29;20051;-73
2021/07/05 07:03:30;;;;;;;5.30;2.30;;;;;;;19.20;75.84;100247.81;4956963;28;20043;-71
2021/07/05 07:05:58;;;;;;;6.60;1.92;;;;;;;19.11;75.67;100247.28;4956185;28;20051;-72
2021/07/05 07:08:25;;;;;;;5.75;2.55;;;;;;;19.14;74.65;100251.34;4956265;28;20048;-71
2021/07/05 07:10:53;;;;;;;6.57;2.92;;;;;;;19.11;75.97;100246.53;4956241;28;20063;-72
2021/07/05 07:13:20;;;;;;;4.53;2.30;;;;;;;19.26;75.12;100248.28;4956052;28;20054;-72
2021/07/05 07:15:53;;;;;;;6.53;1.90;;;;;;;19.15;75.15;100253.75;4954694;29;20513;-73
2021/07/05 07:20:49;;;;;;;4.40;2.00;;;;;;;19.20;74.37;100252.56;4956119;28;20060;-71
2021/07/05 07:23:16;;;;;;;4.75;2.05;;;;;;;19.25;74.37;100252.25;4955879;28;20071;-71
2021/07/05 07:25:44;;;;;;;3.65;1.77;;;;;;;19.13;74.33;100249.72;4956073;28;20058;-70
2021/07/05 07:28:13;;;;;;;5.68;2.22;;;;;;;19.52;73.80;100240.59;4954927;29;20051;-72
2021/07/05 07:30:40;;;;;;;4.95;1.88;;;;;;;19.69;73.44;100251.13;4956649;28;20051;-70
2021/07/05 07:33:09;;;;;;;4.22;1.85;;;;;;;19.35;73.36;100251.59;4953248;29;20380;-71
2021/07/05 07:35:36;;;;;;;4.47;2.00;;;;;;;19.37;73.87;100254.81;4956052;28;20055;-69
2021/07/05 07:38:06;;;;;;;6.20;1.92;;;;;;;19.33;74.14;100259.53;4954170;29;20047;-70
2021/07/05 07:40:39;;;;;;;3.60;1.83;;;;;;;19.23;74.48;100265.78;4954142;29;20047;-71
2021/07/05 07:43:06;;;;;;;10.48;3.90;;;;;;;19.28;73.86;100259.88;4955497;28;20051;-71
2021/07/05 07:45:33;;;;;;;7.32;1.90;;;;;;;19.52;73.23;100268.53;4955934;28;20054;-70
2021/07/05 07:48:01;;;;;;;5.15;1.88;;;;;;;19.71;72.38;100256.31;4955800;29;20161;-68
2021/07/05 07:50:53;;;;;;;16.08;7.95;;;;;;;19.72;72.47;100263.50;4955332;29;20062;-69
2021/07/05 07:53:39;;;;;;;8.60;4.20;;;;;;;19.75;71.88;100266.34;4876354;29;20068;-71
2021/07/05 07:56:19;;;;;;;7.93;2.40;;;;;;;19.55;73.10;100256.59;4877580;29;20157;-70
2021/07/05 07:58:46;;;;;;;3.25;2.00;;;;;;;19.51;73.56;100255.75;4878005;29;20065;-75
2021/07/05 08:01:14;;;;;;;5.65;2.25;;;;;;;19.70;72.66;100247.13;4861959;29;20433;-72
2021/07/05 08:03:41;;;;;;;6.18;2.35;;;;;;;19.87;72.80;100246.50;4877798;29;20060;-70
2021/07/05 08:06:09;;;;;;;3.97;2.03;;;;;;;20.14;71.35;100247.09;4877194;29;20053;-71
2021/07/05 08:08:37;;;;;;;6.13;2.28;;;;;;;20.14;71.30;100245.09;4877881;29;20064;-77
2021/07/05 08:11:04;;;;;;;8.98;2.30;;;;;;;20.26;71.04;100241.19;4877433;29;20112;-71
2021/07/05 08:13:32;;;;;;;5.78;2.05;;;;;;;20.31;70.16;100240.06;4877891;29;20060;-71
2021/07/05 08:16:00;;;;;;;5.38;1.80;;;;;;;20.31;70.29;100232.44;4846479;29;20064;-70
2021/07/05 08:18:27;;;;;;;5.57;1.92;;;;;;;20.59;69.35;100235.41;4877749;29;20434;-70
2021/07/05 08:20:55;;;;;;;7.20;2.80;;;;;;;20.76;68.83;100236.69;4877383;29;20061;-69
2021/07/05 08:23:23;;;;;;;8.98;3.90;;;;;;;20.73;69.09;100238.25;4861693;29;20057;-69
2021/07/05 08:25:50;;;;;;;8.10;4.20;;;;;;;20.75;68.73;100252.69;4877061;29;20434;-71
2021/07/05 08:28:18;;;;;;;5.93;2.50;;;;;;;20.79;68.79;100256.31;4862051;29;20061;-72
2021/07/05 08:35:23;;;;;;;5.72;2.50;;;;;;;20.89;68.90;100258.34;4955176;28;20494;-71
2021/07/05 08:37:53;;;;;;;7.13;2.17;;;;;;;20.41;68.86;100268.09;4954761;28;20051;-72
2021/07/05 08:40:21;;;;;;;8.82;2.20;;;;;;;20.10;70.15;100269.44;4953643;29;20062;-72
2021/07/05 08:42:49;;;;;;;4.95;2.17;;;;;;;19.88;70.72;100253.69;4955050;29;20051;-70
2021/07/05 08:45:17;;;;;;;9.38;2.20;;;;;;;19.85;70.61;100256.44;4954792;29;20054;-70
2021/07/05 08:47:51;;;;;;;3.72;2.35;;;;;;;19.82;71.72;100263.59;4954730;29;20039;-70
2021/07/05 08:50:27;;;;;;;9.27;4.18;;;;;;;20.20;70.71;100262.34;4954744;28;20399;-69
2021/07/05 08:52:59;;;;;;;5.20;1.90;;;;;;;20.40;69.82;100251.69;4954537;28;20051;-68
2021/07/05 08:55:28;;;;;;;5.28;1.92;;;;;;;20.36;68.88;100246.09;4954509;28;20055;-78
2021/07/05 08:57:56;;;;;;;6.22;2.10;;;;;;;20.25;69.60;100249.97;4954844;28;20474;-74
2021/07/05 09:00:29;;;;;;;4.75;1.80;;;;;;;20.49;69.00;100250.13;4955440;29;20043;-73
2021/07/05 09:02:58;;;;;;;6.68;1.83;;;;;;;20.39;69.45;100248.09;4938203;29;20047;-70
2021/07/05 09:05:26;;;;;;;5.85;1.73;;;;;;;20.41;69.57;100251.31;4953046;28;20047;-75
2021/07/05 09:08:03;;;;;;;4.90;2.00;;;;;;;20.66;68.85;100249.44;4954465;28;20055;-77
2021/07/05 09:10:47;;;;;;;5.07;1.75;;;;;;;20.46;69.11;100250.94;4954393;28;20058;-75
2021/07/05 09:13:19;;;;;;;3.17;1.48;;;;;;;20.65;68.20;100258.22;4954580;28;20395;-75
2021/07/05 09:15:50;;;;;;;3.15;1.40;;;;;;;20.53;69.37;100252.97;4954173;28;20060;-78
2021/07/05 09:18:24;;;;;;;;;;;;;;;20.61;69.36;100258.19;4954551;28;20055;-72
2021/07/05 09:20:53;;;;;;;5.10;1.90;;;;;;;20.55;68.62;100265.38;4955048;28;20374;-77
2021/07/05 09:23:21;;;;;;;4.60;1.50;;;;;;;20.19;70.37;100273.94;4954854;28;20047;-73
2021/07/05 09:25:50;;;;;;;2.83;1.48;;;;;;;20.12;70.43;100277.44;4953295;29;20071;-70
2021/07/05 09:28:20;;;;;;;4.67;1.30;;;;;;;20.08;70.60;100262.63;4953310;29;20062;-78
2021/07/05 09:30:59;;;;;;;5.50;1.17;;;;;;;20.27;70.08;100279.19;4923005;29;20058;-70
2021/07/05 09:33:28;;;;;;;5.80;1.35;;;;;;;20.48;68.66;100276.53;4953069;29;20059;-73
2021/07/05 09:35:59;;;;;;;4.25;1.20;;;;;;;20.71;68.30;100273.47;4936686;29;20057;-78
2021/07/05 09:38:39;;;;;;;5.15;1.23;;;;;;;20.61;67.93;100268.59;4953987;28;20055;-79
2021/07/05 09:41:30;;;;;;;5.50;1.50;;;;;;;20.89;67.48;100269.53;4952413;29;20047;-70
2021/07/05 09:43:58;;;;;;;;;;;;;;;20.70;67.60;100267.06;4954570;28;20058;-74
2021/07/05 09:46:45;;;;;;;1.80;1.05;;;;;;;20.64;68.19;100259.44;4954451;28;19923;-73
2021/07/05 09:49:23;;;;;;;5.45;1.20;;;;;;;22.34;64.38;100257.38;4952835;29;20062;-64
2021/07/05 09:52:27;;;;;;;12.65;1.10;;;;;;;23.28;60.27;100263.09;4953773;29;20055;-61
2021/07/05 10:37:14;;;;;;;2.45;1.17;;;;;;;24.05;55.83;100279.47;5382557;24;20060;-55
2021/07/05 10:40:02;;;;;;;4.25;1.38;;;;;;;24.06;55.44;100294.34;4844047;29;20445;-54
2021/07/05 10:42:56;;;;;;;7.75;1.35;;;;;;;23.93;54.67;100294.00;4841916;29;20073;-53
2021/07/05 10:45:59;;;;;;;3.28;1.00;;;;;;;23.98;55.59;100306.84;4840266;29;20517;-54
2021/07/05 10:48:45;;;;;;;2.78;1.15;;;;;;;24.33;54.61;100295.31;4834263;23;20058;-63
2021/07/05 10:51:15;;;;;;;2.67;1.10;;;;;;;24.49;54.07;100307.63;4825863;29;20054;-62
2021/07/05 10:53:43;;;;;;;;;;;;;;;23.91;55.54;100298.44;4822781;29;20061;-61
2021/07/05 10:56:28;;;;;;;3.95;1.10;;;;;;;23.88;56.18;100308.53;4825631;29;19924;-63
2021/07/05 10:58:57;;;;;;;4.90;1.10;;;;;;;23.51;56.85;100302.75;4826161;29;20596;-63
2021/07/05 11:01:45;;;;;;;4.13;1.13;;;;;;;23.86;55.97;100296.06;4824400;29;20060;-62
2021/07/05 11:04:19;;;;;;;5.68;1.10;;;;;;;24.07;55.13;100291.13;4823604;29;20058;-60
2021/07/05 11:06:49;;;;;;;3.90;1.25;;;;;;;24.07;54.82;100290.31;4824898;29;20077;-62
2021/07/05 11:09:21;;;;;;;2.65;0.93;;;;;;;24.09;54.71;100297.13;4825495;29;20502;-62
2021/07/05 11:11:54;;;;;;;5.05;1.00;;;;;;;24.40;53.46;100298.88;4825270;29;20046;-50
2021/07/05 11:14:24;;;;;;;1.90;0.90;;;;;;;24.51;53.11;100290.31;4825253;29;20054;-54
2021/07/05 11:17:10;;;;;;;;;;;;;;;24.57;53.15;100290.63;4826120;29;20058;-71
2021/07/05 11:19:51;;;;;;;4.65;1.08;;;;;;;24.74;52.51;100281.25;4824698;29;19925;-54
2021/07/05 11:22:23;;;;;;;2.50;0.93;;;;;;;24.49;53.19;100276.66;4823409;29;20235;-51
2021/07/05 11:24:56;;;;;;;6.95;1.10;;;;;;;24.36;52.87;100272.75;4825415;29;20085;-55
2021/07/05 11:27:34;;;;;;;2.47;1.30;;;;;;;24.45;53.51;100278.69;4825485;29;20529;-54
2021/07/05 11:30:33;;;;;;;5.47;1.60;;;;;;;24.57;54.76;100276.56;4822789;29;20054;-62
2021/07/05 11:33:24;;;;;;;5.20;1.37;;;;;;;24.63;53.02;100270.06;4824605;29;20054;-63
2021/07/05 11:35:54;;;;;;;7.93;1.65;;;;;;;24.53;52.37;100274.59;4819242;29;20603;-62
2021/07/05 11:38:34;;;;;;;2.50;0.90;;;;;;;24.13;52.75;100260.53;4822527;29;20438;-62
2021/07/05 11:41:10;;;;;;;4.53;1.00;;;;;;;24.22;54.00;100258.00;4824737;29;20062;-63
2021/07/05 11:43:44;;;;;;;4.18;1.45;;;;;;;24.43;53.41;100247.34;4824112;29;20038;-64
2021/07/05 11:46:17;;;;;;;1.65;0.88;;;;;;;24.71;52.14;100256.72;4823249;29;20506;-64
2021/07/05 11:48:46;;;;;;;5.95;1.30;;;;;;;24.79;51.90;100267.50;4823977;29;20593;-68
2021/07/05 11:51:17;;;;;;;4.28;0.95;;;;;;;24.56;51.15;100263.69;4823504;29;20066;-53
2021/07/05 11:53:49;;;;;;;1.98;0.70;;;;;;;24.51;52.60;100260.13;4821798;29;20057;-64
2021/07/05 11:56:39;;;;;;;6.35;0.95;;;;;;;24.31;51.21;100276.03;4822354;29;20073;-63
2021/07/05 11:59:11;;;;;;;2.17;1.00;;;;;;;24.38;52.69;100272.34;4822109;29;20062;-62
2021/07/05 12:01:39;;;;;;;4.70;0.98;;;;;;;24.30;52.68;100268.78;4822971;29;20054;-62
2021/07/05 12:04:07;;;;;;;3.53;0.90;;;;;;;24.13;52.22;100280.22;4822288;29;20149;-62
2021/07/05 12:06:47;;;;;;;4.93;1.15;;;;;;;24.32;52.28;100274.78;4823059;29;20058;-63
2021/07/05 12:09:16;;;;;;;5.00;1.45;;;;;;;24.48;51.79;100272.22;4823171;29;20062;-62
2021/07/05 12:11:45;;;;;;;8.50;1.37;;;;;;;24.68;51.52;100282.88;4822688;29;20057;-61
2021/07/05 12:14:21;;;;;;;4.97;1.13;;;;;;;24.77;51.57;100284.03;4822016;29;20415;-61
2021/07/05 12:16:57;;;;;;;3.92;1.30;;;;;;;24.91;50.70;100274.59;4823157;29;20655;-63
2021/07/05 12:19:28;;;;;;;12.27;1.90;;;;;;;25.25;49.80;100279.00;4821843;29;20057;-63
2021/07/05 12:21:58;;;;;;;19.80;1.52;;;;;;;25.13;49.68;100278.75;4822204;29;20411;-62
2021/07/05 12:24:30;;;;;;;4.07;1.10;;;;;;;25.21;49.87;100277.44;4823927;29;20521;-62
2021/07/05 12:27:00;;;;;;;5.18;1.27;;;;;;;25.22;49.35;100267.75;4824672;29;20050;-62
2021/07/05 12:29:33;;;;;;;3.30;1.10;;;;;;;25.47;49.09;100262.59;4822551;29;20054;-62
2021/07/05 12:32:07;;;;;;;8.20;1.80;;;;;;;25.36;49.50;100257.13;4824246;29;20054;-64
2021/07/05 12:34:44;;;;;;;7.00;1.10;;;;;;;25.20;49.36;100264.56;4824472;29;20046;-63
2021/07/05 12:37:21;;;;;;;3.17;1.00;;;;;;;25.26;48.92;100269.28;4824892;29;20062;-63
2021/07/05 12:40:00;;;;;;;2.60;0.88;;;;;;;25.11;49.80;100276.34;4823811;29;20062;-62
2021/07/05 12:42:45;;;;;;;4.80;0.52;;;;;;;24.81;49.05;100276.31;4824218;29;20092;-62
2021/07/05 12:45:42;;;;;;;3.45;0.90;;;;;;;24.69;50.52;100273.22;4824829;29;20418;-63
2021/07/05 12:48:19;;;;;;;1.00;0.47;;;;;;;24.28;49.12;100268.41;4807434;29;20294;-62
2021/07/05 12:50:57;;;;;;;4.55;0.75;;;;;;;24.16;50.82;100274.56;4824022;29;20054;-62
2021/07/05 12:53:29;;;;;;;3.17;0.70;;;;;;;23.87;51.82;100278.78;4823803;29;20065;-62
2021/07/05 12:56:03;;;;;;;9.73;1.10;;;;;;;24.11;51.05;100274.22;4823798;29;20054;-61